Air Navigation Services of Czech Republic
Airport: LKMT Updated:  24.07.2021 07:00:29  UTC
 METAR LKMT 24.07. 07:00 ...
METAR LKMT 240700Z VRB02KT CAVOK 20/14 Q1016 NOSIG RMK REG QNH 1012=
 TAF LKMT 24.07. 05:00 ...
TAF LKMT 240500Z 2406/2512 VRB02KT CAVOK      BECMG 2505/2507 21010KT 9999 SCT040      TEMPO 2507/2512 7000 SHRA SCT040TCU      PROB30 TEMPO 2507/2512 4000 TSRA SCT030CB=